Time;durP1;ratioP1;P1;durP2;ratioP2;P2;SDS_P1;SDS_P2;PMS_P1;PMS_P2;Temp;Humidity;BMP_temperature;BMP_pressure;BME280_temperature;BME280_humidity;BME280_pressure;Samples;Min_cycle;Max_cycle;Signal;HPM_P1;HPM_P2
2024/01/26 00:01:33;;;;;;;3.35;2.47;;;;;;;20.78;37.07;102170.38;4997610;28;20045;-66
2024/01/26 00:03:59;;;;;;;2.95;2.40;;;;;;;20.76;37.22;102167.06;5020692;28;20041;-66
2024/01/26 00:06:25;;;;;;;4.32;2.83;;;;;;;20.79;37.13;102170.22;4991197;28;20040;-66
2024/01/26 00:08:50;;;;;;;3.33;2.33;;;;;;;20.73;37.41;102147.03;5053498;28;20090;-65
2024/01/26 00:11:17;;;;;;;3.20;2.40;;;;;;;20.78;37.15;102152.69;4973872;28;20044;-66
2024/01/26 00:13:42;;;;;;;3.60;2.50;;;;;;;20.51;37.09;102099.88;5025900;28;20045;-66
2024/01/26 00:16:08;;;;;;;2.97;2.30;;;;;;;20.80;37.20;102141.94;5024379;28;20041;-65
2024/01/26 00:18:35;;;;;;;3.60;2.70;;;;;;;20.76;37.22;102146.72;4985001;28;20056;-65
2024/01/26 00:21:18;;;;;;;3.30;2.58;;;;;;;20.74;37.03;102135.44;5022242;28;20033;-65
2024/01/26 00:23:44;;;;;;;3.97;2.50;;;;;;;20.75;37.21;102153.00;5006565;28;20072;-66
2024/01/26 00:26:12;;;;;;;2.65;2.20;;;;;;;20.62;37.31;102122.59;5020420;28;20038;-65
2024/01/26 00:28:38;;;;;;;2.70;2.33;;;;;;;20.65;36.99;102117.88;4987320;28;20041;-65
2024/01/26 00:31:04;;;;;;;3.45;2.40;;;;;;;20.74;37.20;102140.75;5021996;28;20043;-66
2024/01/26 00:33:29;;;;;;;2.40;2.00;;;;;;;20.72;37.29;102132.13;4979665;28;20048;-65
2024/01/26 00:35:55;;;;;;;3.38;2.08;;;;;;;20.69;37.12;102135.09;5015092;28;20041;-65
2024/01/26 00:38:21;;;;;;;2.83;2.22;;;;;;;20.63;37.17;102117.16;5027855;28;20041;-66
2024/01/26 00:40:47;;;;;;;3.35;2.30;;;;;;;20.65;37.27;102132.91;4977974;28;20357;-66
2024/01/26 00:43:13;;;;;;;3.65;2.50;;;;;;;20.70;37.25;102147.34;5020125;28;20087;-65
2024/01/26 00:45:39;;;;;;;3.22;2.10;;;;;;;20.35;37.21;102097.91;4981486;28;20041;-66
2024/01/26 00:48:04;;;;;;;3.25;2.17;;;;;;;20.57;37.28;102135.47;5020331;28;20042;-66
2024/01/26 00:50:30;;;;;;;4.53;2.45;;;;;;;20.64;37.41;102139.16;4979052;28;20041;-65
2024/01/26 00:52:56;;;;;;;2.78;2.30;;;;;;;20.66;37.44;102142.50;5032478;28;20076;-66
2024/01/26 00:55:22;;;;;;;2.85;2.30;;;;;;;20.58;37.31;102121.25;4962417;28;20891;-66
2024/01/26 00:57:48;;;;;;;4.68;2.65;;;;;;;20.64;37.22;102115.34;5029283;28;20441;-65
2024/01/26 01:00:15;;;;;;;3.05;2.22;;;;;;;20.70;37.10;102118.22;5007348;28;20041;-66
2024/01/26 01:02:40;;;;;;;3.45;2.53;;;;;;;20.63;37.34;102103.09;5002992;28;20041;-66
2024/01/26 01:05:06;;;;;;;3.10;2.45;;;;;;;20.68;37.40;102101.66;5025118;28;20072;-65
2024/01/26 01:07:32;;;;;;;2.78;2.28;;;;;;;20.67;37.37;102105.31;4979152;28;20050;-65
2024/01/26 01:09:58;;;;;;;4.00;2.95;;;;;;;20.50;37.30;102080.53;5030786;28;20060;-65
2024/01/26 01:12:23;;;;;;;3.00;2.20;;;;;;;20.57;37.27;102093.97;4982459;28;20041;-65
2024/01/26 01:14:49;;;;;;;2.70;2.33;;;;;;;20.54;37.36;102096.91;5006811;28;20715;-65
2024/01/26 01:17:14;;;;;;;3.10;2.47;;;;;;;20.62;37.41;102109.38;5028319;28;20499;-65
2024/01/26 01:19:40;;;;;;;2.47;2.20;;;;;;;20.60;37.34;102092.81;4983527;28;20048;-64
2024/01/26 01:22:05;;;;;;;3.45;2.70;;;;;;;20.68;37.13;102095.53;5024898;28;20034;-65
2024/01/26 01:24:31;;;;;;;3.65;2.40;;;;;;;20.63;37.36;102090.69;4981273;28;20099;-65
2024/01/26 01:26:57;;;;;;;2.78;2.50;;;;;;;20.59;37.34;102083.22;5030717;28;20127;-65
2024/01/26 01:29:23;;;;;;;2.20;2.00;;;;;;;20.64;37.31;102091.53;4982057;28;20041;-65
2024/01/26 01:31:48;;;;;;;2.72;2.17;;;;;;;20.59;37.24;102078.75;5030196;28;20088;-65
2024/01/26 01:34:14;;;;;;;2.95;2.45;;;;;;;20.63;37.37;102088.03;5037684;28;20041;-65
2024/01/26 01:36:39;;;;;;;2.95;2.20;;;;;;;20.59;37.47;102081.41;5023652;28;20060;-66
2024/01/26 01:39:05;;;;;;;3.35;2.63;;;;;;;20.63;37.29;102069.50;4975033;28;20056;-65
2024/01/26 01:41:31;;;;;;;2.88;2.30;;;;;;;20.67;37.28;102070.06;5028323;28;20034;-65
2024/01/26 01:43:57;;;;;;;3.88;2.70;;;;;;;20.56;37.40;102054.44;4979001;28;20046;-65
2024/01/26 01:46:22;;;;;;;3.95;2.58;;;;;;;20.59;37.36;102060.22;5025098;28;20037;-65
2024/01/26 01:48:51;;;;;;;3.53;2.30;;;;;;;20.62;37.53;102065.22;4982400;28;20087;-65
2024/01/26 01:51:17;;;;;;;3.17;2.35;;;;;;;20.63;37.29;102064.22;5011940;28;20072;-66
2024/01/26 01:53:42;;;;;;;2.92;2.30;;;;;;;20.59;37.46;102054.94;5027459;28;20175;-65
2024/01/26 01:56:11;;;;;;;3.30;2.10;;;;;;;20.59;37.48;102049.66;5023844;28;20060;-65
2024/01/26 01:58:41;;;;;;;3.40;2.40;;;;;;;20.48;37.37;102031.41;4993009;28;20033;-67
2024/01/26 02:01:07;;;;;;;;;;;;;;;20.60;37.48;102039.88;5013997;28;20037;-68
2024/01/26 02:03:32;;;;;;;3.50;2.60;;;;;;;20.60;37.39;102045.19;4995931;28;19932;-66
2024/01/26 02:05:58;;;;;;;2.80;2.17;;;;;;;20.62;37.53;102045.84;5032425;28;21436;-66
2024/01/26 02:08:24;;;;;;;3.35;2.30;;;;;;;20.54;37.50;102037.88;4978541;28;20045;-66
2024/01/26 02:10:49;;;;;;;3.17;2.35;;;;;;;20.60;37.50;102038.06;5057246;28;20537;-66
2024/01/26 02:13:15;;;;;;;3.65;2.65;;;;;;;20.63;37.60;102029.00;4978369;28;20037;-66
2024/01/26 02:15:41;;;;;;;3.08;2.20;;;;;;;20.60;37.33;102011.59;5010857;28;20038;-66
2024/01/26 02:18:06;;;;;;;3.50;2.30;;;;;;;20.59;37.63;102020.53;5021474;28;20041;-66
2024/01/26 02:20:32;;;;;;;3.05;2.40;;;;;;;20.61;37.44;102007.16;4982273;28;20053;-66
2024/01/26 02:22:57;;;;;;;2.83;2.25;;;;;;;20.51;37.53;102000.16;5023637;28;20041;-66
2024/01/26 02:25:23;;;;;;;3.63;2.72;;;;;;;20.57;37.48;102013.75;4982605;28;20049;-66
2024/01/26 02:27:51;;;;;;;2.70;2.20;;;;;;;20.56;37.51;101996.22;5022400;28;20041;-66
2024/01/26 02:30:17;;;;;;;3.20;2.28;;;;;;;20.57;37.54;101996.03;4977281;28;20042;-66
2024/01/26 02:32:43;;;;;;;3.03;2.17;;;;;;;20.61;37.45;101997.38;5006500;28;20052;-66
2024/01/26 02:35:09;;;;;;;2.35;2.05;;;;;;;20.55;37.66;101994.53;5022530;28;20088;-66
2024/01/26 02:37:35;;;;;;;3.45;2.17;;;;;;;20.58;37.56;102007.47;4980763;28;21271;-66
2024/01/26 02:40:00;;;;;;;2.40;2.10;;;;;;;20.47;37.45;101971.53;5022752;28;20041;-66
2024/01/26 02:42:26;;;;;;;2.67;2.35;;;;;;;20.58;37.46;101986.28;4982617;28;20118;-67
2024/01/26 02:44:51;;;;;;;3.10;2.75;;;;;;;20.54;37.64;101987.59;5024003;28;20113;-66
2024/01/26 02:47:17;;;;;;;2.28;2.08;;;;;;;20.54;37.65;101977.00;4977536;28;20045;-66
2024/01/26 02:49:43;;;;;;;2.60;2.30;;;;;;;20.48;37.67;101965.25;5024575;28;20408;-65
2024/01/26 02:52:08;;;;;;;2.40;2.08;;;;;;;20.43;37.58;101941.88;4980482;28;20033;-65
2024/01/26 02:54:34;;;;;;;2.65;2.28;;;;;;;20.53;37.52;101949.72;5024070;28;20503;-66
2024/01/26 02:56:59;;;;;;;2.78;2.35;;;;;;;20.27;37.57;101899.44;5004064;28;20115;-65
2024/01/26 02:59:25;;;;;;;4.03;2.40;;;;;;;20.54;37.60;101930.22;5028758;28;20024;-65
2024/01/26 03:01:50;;;;;;;2.45;2.20;;;;;;;20.57;37.55;101918.47;4976882;28;20052;-66
2024/01/26 03:04:18;;;;;;;2.42;2.22;;;;;;;20.52;37.50;101918.97;5024053;28;20152;-65
2024/01/26 03:06:45;;;;;;;2.45;2.20;;;;;;;20.51;37.57;101925.25;4987836;28;20469;-66
2024/01/26 03:09:10;;;;;;;3.33;2.30;;;;;;;20.56;37.56;101924.75;5040199;28;20125;-65
2024/01/26 03:11:38;;;;;;;3.10;2.40;;;;;;;20.51;37.60;101919.94;4995855;28;20041;-66
2024/01/26 03:14:05;;;;;;;2.67;2.20;;;;;;;20.50;37.61;101916.47;5008334;28;20025;-66
2024/01/26 03:16:34;;;;;;;3.20;2.45;;;;;;;20.51;37.52;101910.19;5027422;28;20033;-65
2024/01/26 03:19:00;;;;;;;3.70;2.50;;;;;;;20.51;37.60;101910.19;4971309;28;20497;-65
2024/01/26 03:21:26;;;;;;;2.60;2.33;;;;;;;20.51;37.69;101896.97;5025561;28;20119;-65
2024/01/26 03:23:51;;;;;;;2.28;2.08;;;;;;;20.48;37.64;101888.50;4979784;28;20801;-65
2024/01/26 03:26:17;;;;;;;2.30;2.10;;;;;;;20.44;37.65;101885.34;5023466;28;20052;-65
2024/01/26 03:28:43;;;;;;;3.08;2.42;;;;;;;20.57;37.63;101882.25;4975305;28;20040;-65
2024/01/26 03:31:09;;;;;;;2.83;2.50;;;;;;;20.54;37.66;101882.56;5011677;28;20041;-65
2024/01/26 03:33:34;;;;;;;2.25;2.05;;;;;;;20.52;37.73;101873.97;5026812;28;20060;-65
2024/01/26 03:36:01;;;;;;;2.55;2.20;;;;;;;20.49;37.54;101869.00;4972353;28;20045;-65
2024/01/26 03:38:26;;;;;;;2.78;2.28;;;;;;;20.49;37.66;101874.31;5020881;28;20176;-66
2024/01/26 03:40:52;;;;;;;2.28;2.08;;;;;;;20.51;37.77;101875.78;4980296;28;20094;-65
2024/01/26 03:43:18;;;;;;;3.45;2.28;;;;;;;20.49;37.85;101871.66;5023903;28;20663;-65
2024/01/26 03:45:43;;;;;;;2.40;2.20;;;;;;;20.52;37.59;101861.56;4967730;28;20048;-65
2024/01/26 03:48:09;;;;;;;2.90;2.55;;;;;;;20.45;37.85;101849.94;5016843;28;20030;-66
2024/01/26 03:50:34;;;;;;;2.40;2.17;;;;;;;20.47;37.80;101847.16;5009224;28;20045;-65
2024/01/26 03:53:00;;;;;;;2.78;2.47;;;;;;;20.48;37.68;101847.00;5022394;28;20965;-65
2024/01/26 03:55:25;;;;;;;2.55;2.30;;;;;;;20.44;37.54;101826.31;4986897;28;20034;-65
2024/01/26 03:57:51;;;;;;;2.90;2.55;;;;;;;20.49;37.78;101830.16;5023320;28;20051;-65
2024/01/26 04:00:17;;;;;;;2.40;2.20;;;;;;;20.46;37.73;101811.09;5000581;28;21215;-66
2024/01/26 04:02:43;;;;;;;2.40;2.20;;;;;;;20.48;37.77;101795.91;5015027;28;20045;-65
2024/01/26 04:05:11;;;;;;;2.45;2.15;;;;;;;20.45;37.79;101796.19;5030230;28;20071;-65
2024/01/26 04:07:37;;;;;;;2.60;2.28;;;;;;;20.48;37.75;101783.50;4985442;28;20069;-66
2024/01/26 04:10:03;;;;;;;2.40;2.20;;;;;;;20.47;37.62;101752.75;5025871;28;20098;-65
2024/01/26 04:12:29;;;;;;;2.53;2.33;;;;;;;20.46;37.70;101766.94;4969188;28;20037;-65
2024/01/26 04:14:54;;;;;;;2.40;2.10;;;;;;;20.49;37.74;101737.53;5020313;28;20763;-65
2024/01/26 04:17:20;;;;;;;2.80;2.50;;;;;;;20.47;37.55;101742.16;4980708;28;20041;-66
2024/01/26 04:19:46;;;;;;;3.38;2.45;;;;;;;20.41;37.72;101734.03;5023064;28;20480;-65
2024/01/26 04:22:11;;;;;;;2.58;2.30;;;;;;;20.44;37.81;101731.06;4980215;28;20036;-65
2024/01/26 04:24:37;;;;;;;2.72;2.30;;;;;;;20.49;37.71;101734.06;5024674;28;20415;-65
2024/01/26 04:27:03;;;;;;;2.22;2.03;;;;;;;20.41;38.08;101731.38;4979277;28;20025;-66
2024/01/26 04:29:28;;;;;;;2.42;2.22;;;;;;;20.44;37.87;101723.13;5025267;28;20397;-65
2024/01/26 04:31:54;;;;;;;2.40;2.20;;;;;;;20.45;37.69;101730.88;4976148;28;20041;-65
2024/01/26 04:34:19;;;;;;;2.50;2.30;;;;;;;20.45;37.81;101733.53;5005102;28;20048;-65
2024/01/26 04:36:48;;;;;;;3.28;2.45;;;;;;;20.33;37.71;101708.38;5022785;28;20056;-65
2024/01/26 04:39:15;;;;;;;2.08;1.90;;;;;;;20.42;37.74;101725.94;4978722;28;20047;-65
2024/01/26 04:41:40;;;;;;;2.40;2.20;;;;;;;20.41;37.86;101726.91;5026709;28;20160;-65
2024/01/26 04:44:06;;;;;;;3.40;2.10;;;;;;;20.40;37.83;101722.59;4974236;28;20048;-65
2024/01/26 04:46:32;;;;;;;2.45;2.25;;;;;;;20.34;37.68;101704.72;5023204;28;20041;-65
2024/01/26 04:48:57;;;;;;;2.60;2.30;;;;;;;20.41;37.86;101712.88;4978369;28;20050;-65
2024/01/26 04:51:23;;;;;;;2.50;2.30;;;;;;;20.41;37.86;101716.34;5022121;28;20045;-65
2024/01/26 04:53:49;;;;;;;2.47;2.10;;;;;;;20.40;37.84;101716.47;4961478;28;20041;-65
2024/01/26 04:56:14;;;;;;;5.20;2.20;;;;;;;20.34;37.77;101701.25;5022731;28;20053;-65
2024/01/26 04:58:40;;;;;;;3.08;2.20;;;;;;;20.43;37.89;101698.47;4976656;28;20038;-65
2024/01/26 05:01:06;;;;;;;2.97;2.10;;;;;;;20.42;37.85;101694.19;5025210;28;20045;-66
2024/01/26 05:03:32;;;;;;;2.38;2.17;;;;;;;20.41;37.84;101681.13;4974862;28;21431;-65
2024/01/26 05:05:58;;;;;;;2.10;1.90;;;;;;;20.40;37.68;101661.75;5021585;28;20046;-65
2024/01/26 05:08:23;;;;;;;3.25;2.45;;;;;;;20.44;37.81;101673.69;4976162;28;20045;-65
2024/01/26 05:10:49;;;;;;;2.88;2.22;;;;;;;20.43;37.88;101672.03;5017969;28;20037;-65
2024/01/26 05:13:14;;;;;;;2.03;1.88;;;;;;;20.39;37.72;101681.25;5013099;28;20536;-66
2024/01/26 05:15:40;;;;;;;2.38;2.13;;;;;;;20.38;37.87;101663.72;4952221;28;20044;-65
2024/01/26 05:18:05;;;;;;;2.40;2.20;;;;;;;20.40;37.89;101661.75;5021192;28;20045;-65
2024/01/26 05:20:31;;;;;;;2.05;1.90;;;;;;;20.30;38.00;101649.69;4979925;28;20041;-65
2024/01/26 05:22:56;;;;;;;2.60;2.40;;;;;;;20.36;37.88;101649.84;5034331;28;20060;-65
2024/01/26 05:25:22;;;;;;;2.40;2.10;;;;;;;20.37;37.83;101646.19;4979813;28;20048;-65
2024/01/26 05:27:47;;;;;;;2.28;2.05;;;;;;;20.39;37.92;101643.38;5019033;28;20029;-65
2024/01/26 05:30:13;;;;;;;2.50;2.10;;;;;;;20.37;37.92;101638.25;4979485;28;20425;-65
2024/01/26 05:32:38;;;;;;;2.90;2.00;;;;;;;20.36;37.84;101626.03;5026283;28;20171;-65
2024/01/26 05:35:04;;;;;;;2.25;2.05;;;;;;;20.41;37.75;101630.84;4973229;28;20073;-66
2024/01/26 05:37:30;;;;;;;2.10;1.90;;;;;;;20.37;37.95;101637.44;5006262;28;20393;-66
2024/01/26 05:39:56;;;;;;;2.45;2.20;;;;;;;20.40;37.64;101623.88;5019038;28;20069;-65
2024/01/26 05:42:21;;;;;;;2.03;1.90;;;;;;;20.39;37.73;101617.75;4978585;28;20453;-65
2024/01/26 05:44:47;;;;;;;1.98;1.88;;;;;;;20.40;37.99;101600.06;5026769;28;20032;-65
2024/01/26 05:47:12;;;;;;;2.55;2.22;;;;;;;20.37;37.97;101614.47;4980215;28;20434;-66
2024/01/26 05:49:38;;;;;;;2.38;2.10;;;;;;;20.37;38.03;101589.81;5027715;28;20037;-66
2024/01/26 05:52:03;;;;;;;2.30;2.10;;;;;;;20.31;38.14;101570.16;4977983;28;20103;-65
2024/01/26 05:54:29;;;;;;;2.30;2.10;;;;;;;20.33;38.04;101585.88;5024175;28;20041;-65
2024/01/26 05:56:55;;;;;;;2.80;2.08;;;;;;;20.29;38.21;101571.28;4977471;28;20045;-65
2024/01/26 05:59:20;;;;;;;2.35;2.03;;;;;;;20.34;38.18;101561.06;5021393;28;20041;-65
2024/01/26 06:01:46;;;;;;;2.28;1.90;;;;;;;20.36;38.11;101559.06;5012172;28;20041;-65
2024/01/26 06:04:11;;;;;;;2.40;1.85;;;;;;;20.24;38.29;101550.63;5029167;28;20060;-65
2024/01/26 06:06:37;;;;;;;2.33;1.95;;;;;;;20.25;38.29;101549.63;4980590;28;20060;-66
2024/01/26 06:09:02;;;;;;;2.15;1.83;;;;;;;20.29;38.38;101547.47;5027999;28;20068;-65
2024/01/26 06:11:28;;;;;;;2.10;1.90;;;;;;;20.28;38.41;101549.31;4987450;28;20041;-65
2024/01/26 06:13:54;;;;;;;2.58;2.15;;;;;;;20.09;38.39;101513.44;5022989;28;20040;-66
2024/01/26 06:16:19;;;;;;;2.80;2.35;;;;;;;20.31;38.43;101537.59;4984680;28;20037;-65
2024/01/26 06:18:45;;;;;;;2.40;2.10;;;;;;;20.32;38.29;101533.97;5027362;28;20042;-65
2024/01/26 06:21:11;;;;;;;2.35;2.10;;;;;;;20.27;38.37;101528.31;4979892;28;20045;-65
2024/01/26 06:23:38;;;;;;;2.00;1.90;;;;;;;20.27;38.55;101523.03;5012700;28;20087;-65
2024/01/26 06:26:03;;;;;;;1.77;1.67;;;;;;;20.27;38.55;101538.91;5025738;28;20095;-66
2024/01/26 06:28:29;;;;;;;1.92;1.70;;;;;;;20.26;38.48;101521.38;4971175;28;20632;-66
2024/01/26 06:30:55;;;;;;;2.58;1.92;;;;;;;20.23;38.52;101523.34;5023965;28;20037;-65
2024/01/26 06:33:20;;;;;;;3.10;2.00;;;;;;;20.30;38.43;101517.44;5002102;28;20041;-65
2024/01/26 06:35:46;;;;;;;2.88;1.83;;;;;;;20.28;38.51;101524.69;4997299;28;20072;-65
2024/01/26 06:38:12;;;;;;;2.13;1.92;;;;;;;20.32;38.39;101518.91;5004214;28;20618;-65
2024/01/26 06:40:39;;;;;;;2.13;1.90;;;;;;;20.31;38.53;101532.31;4994015;28;20052;-65
2024/01/26 06:43:07;;;;;;;2.15;2.05;;;;;;;20.28;38.59;101533.44;5030420;28;20148;-65
2024/01/26 06:45:33;;;;;;;2.45;1.95;;;;;;;20.28;38.67;101545.84;4979124;28;20045;-65
2024/01/26 06:47:59;;;;;;;2.13;1.90;;;;;;;20.33;38.47;101522.38;5017627;28;20095;-66
2024/01/26 06:50:25;;;;;;;2.20;1.98;;;;;;;20.33;38.41;101533.78;5017908;28;20056;-65
2024/01/26 06:52:50;;;;;;;2.08;1.85;;;;;;;20.33;38.59;101527.69;5024310;28;20367;-65
2024/01/26 06:55:16;;;;;;;2.47;2.03;;;;;;;20.33;38.44;101525.84;4972630;28;20045;-65
2024/01/26 06:57:41;;;;;;;2.38;2.10;;;;;;;20.30;38.47;101512.13;5025420;28;20343;-65
2024/01/26 07:00:09;;;;;;;1.90;1.77;;;;;;;20.36;38.55;101533.44;4981357;28;20045;-65
2024/01/26 07:02:34;;;;;;;1.60;1.50;;;;;;;20.38;38.49;101526.19;5024503;28;20101;-66
2024/01/26 07:05:00;;;;;;;2.42;1.80;;;;;;;20.32;38.61;101508.34;4982911;28;20033;-65
2024/01/26 07:07:26;;;;;;;1.70;1.60;;;;;;;20.32;38.60;101494.28;5023019;28;20037;-66
2024/01/26 07:09:51;;;;;;;2.10;1.90;;;;;;;20.36;38.46;101509.66;4978634;28;20148;-64
2024/01/26 07:12:17;;;;;;;2.13;1.92;;;;;;;20.34;38.61;101497.59;5014029;28;20033;-65
2024/01/26 07:14:42;;;;;;;1.98;1.80;;;;;;;20.35;38.42;101486.84;5021894;28;20405;-66
2024/01/26 07:17:08;;;;;;;2.15;1.88;;;;;;;20.38;38.41;101493.59;4984833;28;20481;-66
2024/01/26 07:19:33;;;;;;;2.85;1.92;;;;;;;20.40;38.27;101488.97;5021185;28;20033;-66
2024/01/26 07:21:59;;;;;;;2.10;1.90;;;;;;;20.37;38.39;101474.25;4981869;28;20033;-66
2024/01/26 07:24:24;;;;;;;2.47;1.98;;;;;;;20.40;38.58;101481.03;5017791;28;20036;-66
2024/01/26 07:26:50;;;;;;;1.80;1.60;;;;;;;20.37;38.37;101465.50;4978757;28;20643;-65
2024/01/26 07:29:16;;;;;;;2.65;1.65;;;;;;;20.37;38.56;101482.19;5023795;28;20503;-64
2024/01/26 07:31:41;;;;;;;2.13;1.92;;;;;;;20.38;38.48;101478.56;4986077;28;26097;-66
2024/01/26 07:34:07;;;;;;;2.10;1.88;;;;;;;20.36;38.33;101453.28;5032840;28;20635;-65
2024/01/26 07:36:36;;;;;;;3.05;1.88;;;;;;;20.39;38.55;101432.59;5013446;28;20056;-65
2024/01/26 07:39:03;;;;;;;2.33;2.10;;;;;;;20.37;38.46;101447.81;5023418;28;20103;-65
2024/01/26 07:41:29;;;;;;;2.80;1.77;;;;;;;20.40;38.39;101465.16;4977449;28;20470;-65
2024/01/26 07:43:55;;;;;;;2.28;1.75;;;;;;;20.43;38.43;101468.31;5021172;28;20107;-65
2024/01/26 07:46:20;;;;;;;1.50;1.40;;;;;;;20.37;38.38;101462.84;4981921;28;20119;-65
2024/01/26 07:48:46;;;;;;;1.92;1.73;;;;;;;20.38;38.46;101457.41;5021867;28;20128;-65
2024/01/26 07:51:11;;;;;;;2.28;1.60;;;;;;;20.41;38.43;101467.66;4979875;28;20045;-65
2024/01/26 07:53:37;;;;;;;2.00;1.80;;;;;;;20.38;38.58;101464.50;5026484;28;20037;-65
2024/01/26 07:56:02;;;;;;;1.75;1.65;;;;;;;20.34;38.79;101464.03;4998919;28;20041;-65
2024/01/26 07:58:28;;;;;;;1.90;1.80;;;;;;;20.38;38.53;101480.38;5024031;28;20068;-65
2024/01/26 08:00:53;;;;;;;1.58;1.48;;;;;;;20.35;38.57;101464.84;4980043;28;20563;-65
2024/01/26 08:03:19;;;;;;;1.60;1.50;;;;;;;20.38;38.51;101465.34;5025769;28;20049;-65
2024/01/26 08:05:44;;;;;;;1.95;1.73;;;;;;;20.37;38.56;101462.84;4979008;28;20033;-65
2024/01/26 08:08:10;;;;;;;1.80;1.70;;;;;;;20.37;38.61;101462.84;5024999;28;20389;-65
2024/01/26 08:10:35;;;;;;;1.80;1.70;;;;;;;20.36;38.54;101472.63;4977722;28;20040;-65
2024/01/26 08:13:01;;;;;;;1.77;1.67;;;;;;;20.40;38.49;101465.16;5038579;28;20057;-65
2024/01/26 08:15:27;;;;;;;2.22;1.60;;;;;;;20.38;38.75;101461.88;4984336;28;20036;-65
2024/01/26 08:17:52;;;;;;;1.98;1.70;;;;;;;20.34;38.61;101465.84;5006021;28;20112;-65
2024/01/26 08:20:18;;;;;;;2.25;1.80;;;;;;;20.37;38.59;101462.84;5022456;28;20052;-65
2024/01/26 08:22:43;;;;;;;1.85;1.75;;;;;;;20.38;38.51;101436.22;4975466;28;21392;-65
2024/01/26 08:25:10;;;;;;;2.08;1.58;;;;;;;20.38;38.65;101446.81;5024664;28;20079;-65
2024/01/26 08:27:36;;;;;;;1.50;1.40;;;;;;;20.34;38.71;101448.16;4972289;28;21006;-65
2024/01/26 08:30:02;;;;;;;1.73;1.60;;;;;;;20.34;38.60;101442.03;5020590;28;20095;-64
2024/01/26 08:32:27;;;;;;;2.08;1.63;;;;;;;20.37;38.63;101415.25;4993855;28;20457;-64
2024/01/26 08:34:53;;;;;;;1.35;1.27;;;;;;;20.45;38.49;101436.41;5017382;28;20041;-64
2024/01/26 08:37:19;;;;;;;1.80;1.52;;;;;;;20.36;38.62;101425.00;4988240;28;20558;-64
2024/01/26 08:39:44;;;;;;;1.70;1.60;;;;;;;20.46;38.18;101438.06;5015281;28;20041;-64
2024/01/26 08:42:10;;;;;;;1.70;1.60;;;;;;;20.40;38.72;101436.88;5010606;28;20038;-64
2024/01/26 08:44:36;;;;;;;1.85;1.33;;;;;;;20.43;38.46;101447.16;5018479;28;20041;-63
2024/01/26 08:47:01;;;;;;;1.60;1.50;;;;;;;20.42;38.61;101447.34;4981422;28;20068;-64
2024/01/26 08:49:27;;;;;;;1.27;1.17;;;;;;;20.39;38.66;101443.19;5020721;28;20038;-64
2024/01/26 08:51:52;;;;;;;1.50;1.30;;;;;;;20.33;38.79;101430.63;4979560;28;20038;-64
2024/01/26 08:54:18;;;;;;;1.45;1.35;;;;;;;20.33;38.61;101416.59;5023100;28;20076;-64
2024/01/26 08:56:45;;;;;;;1.20;1.10;;;;;;;20.40;38.87;101433.41;4976652;28;20048;-64
2024/01/26 08:59:10;;;;;;;1.52;1.42;;;;;;;20.33;38.70;101424.53;4969162;28;20071;-64
2024/01/26 09:01:38;;;;;;;1.40;1.30;;;;;;;20.40;38.74;101462.50;5023087;28;20161;-63
2024/01/26 09:04:08;;;;;;;1.40;1.30;;;;;;;20.41;38.55;101443.03;4986207;28;20037;-64
2024/01/26 09:06:36;;;;;;;1.77;1.65;;;;;;;20.27;38.79;101418.06;5024316;28;20063;-64
2024/01/26 09:09:03;;;;;;;1.65;1.50;;;;;;;20.42;38.77;101439.41;4976357;28;20517;-64
2024/01/26 09:11:29;;;;;;;1.48;1.38;;;;;;;20.40;38.87;101444.81;5024609;28;20045;-64
2024/01/26 09:13:56;;;;;;;1.20;1.17;;;;;;;20.37;38.77;101423.19;4981606;28;20048;-64
2024/01/26 09:16:22;;;;;;;2.00;1.55;;;;;;;20.35;38.75;101441.88;5020479;28;20037;-64
2024/01/26 09:18:47;;;;;;;1.35;1.15;;;;;;;20.41;38.77;101443.88;4980063;28;20072;-64
2024/01/26 09:21:13;;;;;;;1.50;1.40;;;;;;;20.42;38.81;101456.09;5013532;28;20045;-64
2024/01/26 09:23:40;;;;;;;1.30;1.10;;;;;;;20.36;38.92;101461.22;5024428;28;20224;-63
2024/01/26 09:26:05;;;;;;;1.20;1.10;;;;;;;20.30;38.96;101460.06;4982791;28;20056;-64
2024/01/26 09:28:31;;;;;;;1.15;1.10;;;;;;;20.32;38.87;101500.41;5031994;28;20472;-64
2024/01/26 09:30:56;;;;;;;1.75;1.27;;;;;;;20.35;38.72;101500.06;4984038;28;20484;-64
2024/01/26 09:33:22;;;;;;;1.35;1.25;;;;;;;20.41;38.92;101546.19;5027979;28;20029;-64
2024/01/26 09:35:48;;;;;;;1.60;1.25;;;;;;;20.44;38.86;101551.97;4982729;28;21571;-64
2024/01/26 09:38:13;;;;;;;1.70;1.40;;;;;;;20.41;38.77;101557.63;5025946;28;20041;-63
2024/01/26 09:40:39;;;;;;;2.13;1.40;;;;;;;20.29;38.77;101543.06;4964890;28;26875;-64
2024/01/26 09:43:06;;;;;;;1.17;1.08;;;;;;;20.41;38.65;101562.91;5026419;28;20382;-64
2024/01/26 09:45:32;;;;;;;1.40;1.30;;;;;;;20.40;38.70;101563.88;5026924;28;20041;-64
2024/01/26 09:47:58;;;;;;;1.40;1.17;;;;;;;20.35;38.66;101583.88;5020401;28;20041;-64
2024/01/26 09:50:26;;;;;;;1.10;1.02;;;;;;;20.39;38.76;101604.53;4973483;28;20041;-64
2024/01/26 09:52:52;;;;;;;1.73;1.60;;;;;;;20.40;38.67;101602.72;5026746;28;20060;-64
2024/01/26 09:55:19;;;;;;;1.20;1.20;;;;;;;20.36;38.60;101619.91;4975022;28;20589;-64
2024/01/26 09:57:47;;;;;;;1.27;1.27;;;;;;;20.40;38.60;101637.09;5032305;28;20037;-64
2024/01/26 10:00:14;;;;;;;1.58;1.48;;;;;;;20.38;38.64;101650.50;4976823;28;20028;-65
2024/01/26 10:02:43;;;;;;;1.48;1.33;;;;;;;20.31;38.67;101635.47;5016688;28;20048;-65
2024/01/26 10:05:09;;;;;;;1.30;1.13;;;;;;;20.44;38.42;101657.81;5019729;28;20040;-64
2024/01/26 10:07:35;;;;;;;2.47;1.40;;;;;;;20.43;38.65;101676.50;4981714;28;20459;-65
2024/01/26 10:10:01;;;;;;;1.42;1.30;;;;;;;20.36;38.57;101676.28;5017946;28;20033;-65
2024/01/26 10:12:26;;;;;;;1.25;1.17;;;;;;;20.43;38.57;101684.44;4975097;28;20558;-65
2024/01/26 10:15:04;;;;;;;1.48;1.35;;;;;;;20.33;38.36;101650.16;5022238;28;20065;-64
2024/01/26 10:17:30;;;;;;;1.45;1.35;;;;;;;20.43;38.42;101676.50;4970519;28;20412;-64
2024/01/26 10:20:18;;;;;;;1.42;1.33;;;;;;;20.38;38.61;101682.25;5023218;28;20037;-64
2024/01/26 10:22:45;;;;;;;2.55;1.20;;;;;;;20.34;38.36;101666.88;4969193;28;20358;-64
2024/01/26 10:25:12;;;;;;;1.08;0.98;;;;;;;20.44;38.53;101691.38;5009469;28;20044;-64
2024/01/26 10:27:37;;;;;;;1.42;1.33;;;;;;;20.36;38.60;101700.09;5028588;28;20116;-64
2024/01/26 10:30:04;;;;;;;0.80;0.75;;;;;;;20.34;38.48;101694.16;4973365;28;20067;-64
2024/01/26 10:32:32;;;;;;;1.30;1.20;;;;;;;20.37;38.51;101701.75;5022593;28;20588;-64
2024/01/26 10:35:02;;;;;;;1.23;1.10;;;;;;;20.37;38.56;101709.69;4978732;28;20454;-64
2024/01/26 10:37:32;;;;;;;1.33;1.20;;;;;;;20.40;38.54;101725.22;5020897;28;20062;-66
2024/01/26 10:40:00;;;;;;;1.33;1.20;;;;;;;20.38;38.59;101735.16;4977500;28;20505;-65
2024/01/26 10:42:29;;;;;;;1.13;1.02;;;;;;;20.37;38.31;101730.03;5008711;28;20037;-66
2024/01/26 10:44:57;;;;;;;1.40;1.30;;;;;;;20.39;38.43;101738.63;5026830;28;20025;-65
2024/01/26 10:47:25;;;;;;;1.30;1.20;;;;;;;20.39;38.48;101757.97;4973063;28;20433;-65
2024/01/26 10:49:54;;;;;;;1.55;1.10;;;;;;;20.36;38.61;101763.59;5029073;28;20445;-66
2024/01/26 10:52:20;;;;;;;1.27;1.20;;;;;;;20.39;38.35;101770.38;4970441;28;20045;-66
2024/01/26 10:54:47;;;;;;;1.92;1.25;;;;;;;20.39;38.48;101776.50;5020172;28;20035;-66
2024/01/26 10:57:16;;;;;;;2.15;1.60;;;;;;;20.39;38.50;101780.94;4966002;28;20049;-66
2024/01/26 10:59:43;;;;;;;0.95;0.90;;;;;;;20.40;38.35;101786.09;5024249;28;20075;-65
2024/01/26 11:02:16;;;;;;;1.42;1.08;;;;;;;20.22;38.35;101754.44;4950147;28;20037;-66
2024/01/26 11:04:43;;;;;;;1.27;1.17;;;;;;;20.48;38.14;101790.63;5024907;28;20037;-66
2024/01/26 11:07:09;;;;;;;1.30;0.90;;;;;;;20.38;38.11;101766.91;4999411;28;20513;-66
2024/01/26 11:09:38;;;;;;;1.25;0.95;;;;;;;20.47;38.24;101794.25;4987959;28;20053;-66
2024/01/26 11:12:25;;;;;;;1.67;1.02;;;;;;;20.45;38.55;101812.91;5022789;28;20037;-65
2024/01/26 11:15:08;;;;;;;2.03;1.10;;;;;;;20.45;38.54;101822.66;5012695;28;20041;-66
2024/01/26 11:18:06;;;;;;;1.58;1.10;;;;;;;20.49;38.42;101822.22;4972338;28;20779;-68
2024/01/26 11:20:35;;;;;;;3.50;1.40;;;;;;;20.23;38.68;101805.53;5012727;28;20049;-66